Time;durP1;ratioP1;P1;durP2;ratioP2;P2;SDS_P1;SDS_P2;PMS_P1;PMS_P2;Temp;Humidity;BMP_temperature;BMP_pressure;BME280_temperature;BME280_humidity;BME280_pressure;Samples;Min_cycle;Max_cycle;Signal;HPM_P1;HPM_P2
2023/03/08 00:00:06;;;;;;;0.30;0.30;;;;;;;;;;5137644;27;20045;-61
2023/03/08 00:02:32;;;;;;;0.50;0.35;;;;;;;;;;5114062;27;20095;-60
2023/03/08 00:04:58;;;;;;;0.60;0.30;;;;;;;;;;5132987;27;20047;-61
2023/03/08 00:07:24;;;;;;;0.30;0.30;;;;;;;;;;5112234;27;20051;-59
2023/03/08 00:09:50;;;;;;;0.40;0.30;;;;;;;;;;5113580;27;20035;-59
2023/03/08 00:12:21;;;;;;;0.75;0.40;;;;;;;;;;5110314;27;20116;-60
2023/03/08 00:14:47;;;;;;;1.73;0.20;;;;;;;;;;5113671;27;20086;-61
2023/03/08 00:17:13;;;;;;;0.43;0.40;;;;;;;;;;5108910;27;20047;-61
2023/03/08 00:19:39;;;;;;;0.85;0.32;;;;;;;;;;5115008;27;20052;-61
2023/03/08 00:22:05;;;;;;;0.20;0.20;;;;;;;;;;5113804;27;20389;-61
2023/03/08 00:24:31;;;;;;;0.22;0.20;;;;;;;;;;5116098;27;20526;-59
2023/03/08 00:26:57;;;;;;;0.40;0.30;;;;;;;;;;5114062;27;20039;-61
2023/03/08 00:29:23;;;;;;;0.60;0.60;;;;;;;;;;5109405;27;20092;-61
2023/03/08 00:31:49;;;;;;;0.20;0.20;;;;;;;;;;5116348;27;20783;-62
2023/03/08 00:34:16;;;;;;;0.63;0.47;;;;;;;;;;5110445;27;20470;-61
2023/03/08 00:36:42;;;;;;;0.40;0.30;;;;;;;;;;5109975;27;20168;-61
2023/03/08 00:39:08;;;;;;;0.52;0.38;;;;;;;;;;5110944;27;20478;-61
2023/03/08 00:41:35;;;;;;;0.15;0.15;;;;;;;;;;5115488;27;20067;-61
2023/03/08 00:44:01;;;;;;;1.25;0.30;;;;;;;;;;5113644;27;20039;-59
2023/03/08 00:46:27;;;;;;;0.22;0.22;;;;;;;;;;5115135;27;20079;-61
2023/03/08 00:48:53;;;;;;;0.20;0.17;;;;;;;;;;5117512;27;20643;-61
2023/03/08 00:51:20;;;;;;;0.30;0.20;;;;;;;;;;5110833;28;20031;-61
2023/03/08 00:53:46;;;;;;;0.47;0.22;;;;;;;;;;5117982;28;20382;-60
2023/03/08 00:56:12;;;;;;;1.10;0.30;;;;;;;;;;5114618;28;20044;-59
2023/03/08 00:58:39;;;;;;;0.32;0.25;;;;;;;;;;5115063;28;20039;-61
2023/03/08 01:01:06;;;;;;;0.20;0.15;;;;;;;;;;5114286;28;20574;-61
2023/03/08 01:03:32;;;;;;;0.20;0.20;;;;;;;;;;5117773;28;20043;-59
2023/03/08 01:05:58;;;;;;;0.43;0.35;;;;;;;;;;5116151;28;20031;-61
2023/03/08 01:08:26;;;;;;;0.10;0.10;;;;;;;;;;5130011;27;20301;-61
2023/03/08 01:10:53;;;;;;;2.97;0.20;;;;;;;;;;5128718;27;20047;-61
2023/03/08 01:13:20;;;;;;;0.10;0.10;;;;;;;;;;5123671;27;20040;-61
2023/03/08 01:15:46;;;;;;;0.35;0.10;;;;;;;;;;5136666;27;20074;-61
2023/03/08 01:18:12;;;;;;;0.22;0.15;;;;;;;;;;5135483;27;20047;-60
2023/03/08 01:20:38;;;;;;;0.60;0.20;;;;;;;;;;5138898;27;20055;-61
2023/03/08 01:23:04;;;;;;;0.30;0.20;;;;;;;;;;5128692;27;20393;-61
2023/03/08 01:25:30;;;;;;;0.22;0.17;;;;;;;;;;5136978;27;20078;-59
2023/03/08 01:27:56;;;;;;;0.30;0.20;;;;;;;;;;5133943;27;20031;-61
2023/03/08 01:30:22;;;;;;;0.70;0.20;;;;;;;;;;5139529;27;20050;-61
2023/03/08 01:32:48;;;;;;;0.20;0.10;;;;;;;;;;5140514;27;20378;-61
2023/03/08 01:35:14;;;;;;;0.30;0.30;;;;;;;;;;5128718;27;20050;-60
2023/03/08 01:37:40;;;;;;;0.17;0.08;;;;;;;;;;5131309;27;20038;-59
2023/03/08 01:40:07;;;;;;;0.30;0.10;;;;;;;;;;5132848;27;20605;-60
2023/03/08 01:42:33;;;;;;;0.20;0.20;;;;;;;;;;5137886;27;20075;-61
2023/03/08 01:45:04;;;;;;;0.20;0.20;;;;;;;;;;5140100;27;20114;-59
2023/03/08 01:47:31;;;;;;;0.52;0.20;;;;;;;;;;5139690;27;20046;-59
2023/03/08 01:49:59;;;;;;;0.43;0.30;;;;;;;;;;5142672;27;20038;-61
2023/03/08 01:52:30;;;;;;;0.35;0.30;;;;;;;;;;5137715;27;20919;-61
2023/03/08 01:54:59;;;;;;;0.15;0.10;;;;;;;;;;5138664;27;20045;-61
2023/03/08 01:57:27;;;;;;;0.20;0.10;;;;;;;;;;5138051;27;20505;-59
2023/03/08 01:59:56;;;;;;;0.70;0.30;;;;;;;;;;5139207;27;20087;-61
2023/03/08 02:02:23;;;;;;;1.40;0.28;;;;;;;;;;5133851;27;20043;-60
2023/03/08 02:04:49;;;;;;;1.00;0.30;;;;;;;;;;5137346;27;20047;-61
2023/03/08 02:07:15;;;;;;;1.80;0.30;;;;;;;;;;5137300;27;20050;-61
2023/03/08 02:09:42;;;;;;;0.85;0.20;;;;;;;;;;5140857;27;20051;-61
2023/03/08 02:12:10;;;;;;;1.38;0.30;;;;;;;;;;5137478;27;20157;-61
2023/03/08 02:14:36;;;;;;;0.47;0.28;;;;;;;;;;5137089;27;20100;-60
2023/03/08 02:17:02;;;;;;;0.22;0.20;;;;;;;;;;5134469;27;20043;-59
2023/03/08 02:19:48;;;;;;;1.35;0.10;;;;;;;;;;5138937;27;20047;-61
2023/03/08 02:22:15;;;;;;;0.50;0.10;;;;;;;;;;5119296;27;20086;-61
2023/03/08 02:24:41;;;;;;;0.10;0.10;;;;;;;;;;5139668;27;20046;-61
2023/03/08 02:27:11;;;;;;;0.80;0.20;;;;;;;;;;5138501;27;20031;-59
2023/03/08 02:29:38;;;;;;;0.50;0.20;;;;;;;;;;5138320;27;20091;-61
2023/03/08 02:32:04;;;;;;;0.28;0.20;;;;;;;;;;5136280;27;20039;-61
2023/03/08 02:34:30;;;;;;;0.73;0.17;;;;;;;;;;5139620;27;20062;-59
2023/03/08 02:36:56;;;;;;;0.30;0.20;;;;;;;;;;5139619;27;20042;-61
2023/03/08 02:39:22;;;;;;;0.20;0.20;;;;;;;;;;5116467;27;20100;-61
2023/03/08 02:41:48;;;;;;;0.10;0.10;;;;;;;;;;5135900;27;20067;-59
2023/03/08 02:44:14;;;;;;;0.55;0.20;;;;;;;;;;5132067;27;20043;-59
2023/03/08 02:46:40;;;;;;;0.20;0.20;;;;;;;;;;5134669;27;20051;-59
2023/03/08 02:49:06;;;;;;;0.10;0.10;;;;;;;;;;5133265;27;20039;-61
2023/03/08 02:51:32;;;;;;;0.35;0.10;;;;;;;;;;5139898;27;20066;-59
2023/03/08 02:53:58;;;;;;;1.90;0.25;;;;;;;;;;5138673;27;20049;-61
2023/03/08 02:56:24;;;;;;;0.10;0.05;;;;;;;;;;5133760;27;20039;-61
2023/03/08 02:58:50;;;;;;;0.10;0.10;;;;;;;;;;5131112;27;20047;-62
2023/03/08 03:01:16;;;;;;;0.75;0.20;;;;;;;;;;5137980;27;20050;-61
2023/03/08 03:03:42;;;;;;;0.20;0.20;;;;;;;;;;5134554;27;20497;-61
2023/03/08 03:06:15;;;;;;;0.10;0.10;;;;;;;;;;5137477;27;20558;-59
2023/03/08 03:08:41;;;;;;;0.38;0.17;;;;;;;;;;5137271;27;20083;-61
2023/03/08 03:11:17;;;;;;;0.20;0.20;;;;;;;;;;5135561;27;20566;-61
2023/03/08 03:13:43;;;;;;;0.20;0.20;;;;;;;;;;5134867;27;20042;-62
2023/03/08 03:16:14;;;;;;;0.10;0.00;;;;;;;;;;5137737;27;20723;-62
2023/03/08 03:18:40;;;;;;;0.20;0.15;;;;;;;;;;5133457;27;20088;-59
2023/03/08 03:21:08;;;;;;;0.10;0.10;;;;;;;;;;5132239;27;20123;-59
2023/03/08 03:23:34;;;;;;;0.47;0.20;;;;;;;;;;5137350;27;20041;-61
2023/03/08 03:26:03;;;;;;;0.10;0.10;;;;;;;;;;5133356;27;20035;-61
2023/03/08 03:28:29;;;;;;;0.47;0.10;;;;;;;;;;5131984;27;20043;-59
2023/03/08 03:30:55;;;;;;;0.35;0.10;;;;;;;;;;5136725;27;20046;-59
2023/03/08 03:33:21;;;;;;;0.10;0.10;;;;;;;;;;5136069;27;20042;-59
2023/03/08 03:35:47;;;;;;;0.30;0.10;;;;;;;;;;5136412;27;20050;-61
2023/03/08 03:38:13;;;;;;;0.10;0.10;;;;;;;;;;5136469;27;20034;-59
2023/03/08 03:40:39;;;;;;;0.05;0.05;;;;;;;;;;5133074;27;20167;-59
2023/03/08 03:43:05;;;;;;;0.57;0.20;;;;;;;;;;5136571;27;20546;-59
2023/03/08 03:45:31;;;;;;;0.00;0.00;;;;;;;;;;5139227;27;20230;-60
2023/03/08 03:47:57;;;;;;;0.08;0.08;;;;;;;;;;5133496;27;20039;-60
2023/03/08 03:50:23;;;;;;;0.20;0.20;;;;;;;;;;5137456;27;20154;-60
2023/03/08 03:52:49;;;;;;;0.00;0.00;;;;;;;;;;5136373;27;20927;-61
2023/03/08 03:55:15;;;;;;;0.10;0.10;;;;;;;;;;5133592;27;20039;-61
2023/03/08 03:57:41;;;;;;;0.10;0.10;;;;;;;;;;5132432;27;20158;-61
2023/03/08 04:00:08;;;;;;;0.10;0.10;;;;;;;;;;5136868;27;20481;-59
2023/03/08 04:02:34;;;;;;;0.25;0.10;;;;;;;;;;5131694;27;20100;-59
2023/03/08 04:05:00;;;;;;;0.10;0.10;;;;;;;;;;5138315;27;20035;-61
2023/03/08 04:07:26;;;;;;;0.73;0.38;;;;;;;;;;5137887;27;20074;-61
2023/03/08 04:09:52;;;;;;;0.30;0.13;;;;;;;;;;5134487;27;20053;-61
2023/03/08 04:12:18;;;;;;;0.30;0.20;;;;;;;;;;5130547;27;20477;-60
2023/03/08 04:14:44;;;;;;;0.17;0.10;;;;;;;;;;5131434;27;20043;-59
2023/03/08 04:17:10;;;;;;;0.40;0.20;;;;;;;;;;5130970;27;20035;-59
2023/03/08 04:19:36;;;;;;;0.47;0.40;;;;;;;;;;5131578;27;20077;-59
2023/03/08 04:22:02;;;;;;;0.45;0.20;;;;;;;;;;5133274;27;20046;-60
2023/03/08 04:24:28;;;;;;;0.20;0.20;;;;;;;;;;5134424;27;20111;-61
2023/03/08 04:26:54;;;;;;;1.20;0.20;;;;;;;;;;5138126;27;20457;-60
2023/03/08 04:29:20;;;;;;;0.40;0.20;;;;;;;;;;5135927;27;20089;-60
2023/03/08 04:31:46;;;;;;;0.95;0.30;;;;;;;;;;5137451;27;20538;-61
2023/03/08 04:34:12;;;;;;;0.10;0.10;;;;;;;;;;5137162;27;20043;-61
2023/03/08 04:36:38;;;;;;;0.20;0.20;;;;;;;;;;5138130;27;20457;-61
2023/03/08 04:39:04;;;;;;;0.10;0.10;;;;;;;;;;5134605;27;20047;-59
2023/03/08 04:41:30;;;;;;;0.30;0.20;;;;;;;;;;5134739;27;20092;-60
2023/03/08 04:43:57;;;;;;;0.15;0.10;;;;;;;;;;5140439;27;20513;-61
2023/03/08 04:46:24;;;;;;;0.30;0.22;;;;;;;;;;5133928;27;20074;-61
2023/03/08 04:48:54;;;;;;;0.10;0.10;;;;;;;;;;5136041;27;20572;-60
2023/03/08 04:51:21;;;;;;;0.38;0.25;;;;;;;;;;5130157;27;20047;-61
2023/03/08 04:53:47;;;;;;;0.10;0.10;;;;;;;;;;5136396;27;20508;-61
2023/03/08 04:56:14;;;;;;;0.45;0.10;;;;;;;;;;5139079;27;20408;-61
2023/03/08 04:58:40;;;;;;;0.10;0.10;;;;;;;;;;5134090;27;20702;-61
2023/03/08 05:01:14;;;;;;;0.20;0.10;;;;;;;;;;5135862;27;20144;-60
2023/03/08 05:03:41;;;;;;;0.30;0.10;;;;;;;;;;5133647;27;20075;-60
2023/03/08 05:06:07;;;;;;;0.10;0.10;;;;;;;;;;5132739;27;20039;-59
2023/03/08 05:08:33;;;;;;;0.00;0.00;;;;;;;;;;5135176;27;20055;-60
2023/03/08 05:11:00;;;;;;;0.13;0.13;;;;;;;;;;5139821;27;20406;-61
2023/03/08 05:13:27;;;;;;;0.30;0.10;;;;;;;;;;5128769;27;20104;-61
2023/03/08 05:15:53;;;;;;;0.10;0.10;;;;;;;;;;5131418;27;20049;-59
2023/03/08 05:18:19;;;;;;;0.30;0.20;;;;;;;;;;5132699;27;20035;-61
2023/03/08 05:20:52;;;;;;;0.28;0.10;;;;;;;;;;5132777;27;20138;-61
2023/03/08 05:23:18;;;;;;;0.10;0.10;;;;;;;;;;5133073;27;20042;-61
2023/03/08 05:25:44;;;;;;;0.10;0.10;;;;;;;;;;5133457;27;20042;-61
2023/03/08 05:28:14;;;;;;;0.30;0.10;;;;;;;;;;5128326;27;20038;-60
2023/03/08 05:30:40;;;;;;;0.15;0.10;;;;;;;;;;5128747;27;20617;-61
2023/03/08 05:33:06;;;;;;;0.10;0.10;;;;;;;;;;5134061;27;20039;-61
2023/03/08 05:35:32;;;;;;;0.20;0.20;;;;;;;;;;5134910;27;20511;-61
2023/03/08 05:37:58;;;;;;;0.10;0.10;;;;;;;;;;5131748;27;20043;-59
2023/03/08 05:40:24;;;;;;;0.10;0.10;;;;;;;;;;5113386;27;20035;-60
2023/03/08 05:42:50;;;;;;;0.20;0.20;;;;;;;;;;5131434;27;20447;-59
2023/03/08 05:45:16;;;;;;;0.20;0.10;;;;;;;;;;5134074;27;20099;-61
2023/03/08 05:47:42;;;;;;;0.17;0.17;;;;;;;;;;5131225;27;20070;-61
2023/03/08 05:50:09;;;;;;;0.03;0.00;;;;;;;;;;5133770;27;20043;-59
2023/03/08 05:52:35;;;;;;;0.08;0.08;;;;;;;;;;5134989;27;20554;-59
2023/03/08 05:55:01;;;;;;;0.00;0.00;;;;;;;;;;5133382;27;20563;-59
2023/03/08 05:57:27;;;;;;;0.10;0.10;;;;;;;;;;5137598;27;20126;-59
2023/03/08 05:59:53;;;;;;;0.10;0.10;;;;;;;;;;5133485;27;20061;-59
2023/03/08 06:02:19;;;;;;;0.22;0.20;;;;;;;;;;5135613;27;20403;-61
2023/03/08 06:04:45;;;;;;;0.10;0.10;;;;;;;;;;5136423;27;20050;-61
2023/03/08 06:07:11;;;;;;;0.75;0.08;;;;;;;;;;5131250;27;20097;-61
2023/03/08 06:09:37;;;;;;;0.28;0.10;;;;;;;;;;5131695;27;20055;-59
2023/03/08 06:12:03;;;;;;;0.20;0.20;;;;;;;;;;5137891;27;20042;-59
2023/03/08 06:14:29;;;;;;;0.30;0.20;;;;;;;;;;5135829;27;20050;-61
2023/03/08 06:16:55;;;;;;;0.13;0.13;;;;;;;;;;5138321;27;20031;-61
2023/03/08 06:19:21;;;;;;;0.25;0.17;;;;;;;;;;5136860;27;20464;-59
2023/03/08 06:21:47;;;;;;;0.10;0.10;;;;;;;;;;5134411;27;20073;-61
2023/03/08 06:24:13;;;;;;;0.30;0.20;;;;;;;;;;5136725;27;20557;-61
2023/03/08 06:26:39;;;;;;;0.20;0.20;;;;;;;;;;5132778;27;20043;-61
2023/03/08 06:29:05;;;;;;;0.10;0.10;;;;;;;;;;5134149;27;20043;-60
2023/03/08 06:31:31;;;;;;;0.10;0.10;;;;;;;;;;5133239;27;20800;-59
2023/03/08 06:33:57;;;;;;;0.80;0.40;;;;;;;;;;5138308;27;20049;-61
2023/03/08 06:36:23;;;;;;;0.47;0.20;;;;;;;;;;5137811;27;20046;-61
2023/03/08 06:38:49;;;;;;;0.10;0.10;;;;;;;;;;5130717;27;20095;-61
2023/03/08 06:41:16;;;;;;;0.35;0.10;;;;;;;;;;5139453;27;20035;-61
2023/03/08 06:43:42;;;;;;;0.20;0.20;;;;;;;;;;5132921;27;20072;-61
2023/03/08 06:46:12;;;;;;;1.42;0.30;;;;;;;;;;5139765;27;20083;-61
2023/03/08 06:48:40;;;;;;;0.20;0.20;;;;;;;;;;5133202;27;21208;-61
2023/03/08 06:51:06;;;;;;;0.63;0.52;;;;;;;;;;5137071;27;20065;-60
2023/03/08 06:53:34;;;;;;;0.10;0.10;;;;;;;;;;5138961;27;20580;-59
2023/03/08 06:56:02;;;;;;;0.13;0.10;;;;;;;;;;5138182;27;20651;-60
2023/03/08 06:58:28;;;;;;;0.38;0.25;;;;;;;;;;5135375;27;20450;-62
2023/03/08 07:00:54;;;;;;;0.13;0.13;;;;;;;;;;5134367;27;20752;-59
2023/03/08 07:03:20;;;;;;;0.10;0.10;;;;;;;;;;5138063;27;20169;-61
2023/03/08 07:05:46;;;;;;;0.30;0.10;;;;;;;;;;5134626;27;20139;-61
2023/03/08 07:08:12;;;;;;;0.15;0.10;;;;;;;;;;5131330;27;20135;-61
2023/03/08 07:10:38;;;;;;;0.20;0.20;;;;;;;;;;5131579;27;20039;-59
2023/03/08 07:13:04;;;;;;;0.20;0.20;;;;;;;;;;5135731;27;20035;-59
2023/03/08 07:15:30;;;;;;;0.10;0.10;;;;;;;;;;5133935;27;20099;-59
2023/03/08 07:17:56;;;;;;;0.10;0.10;;;;;;;;;;5138411;27;20030;-61
2023/03/08 07:20:23;;;;;;;0.20;0.20;;;;;;;;;;5131430;27;20050;-59
2023/03/08 07:22:49;;;;;;;0.22;0.20;;;;;;;;;;5132153;27;20338;-60
2023/03/08 07:25:16;;;;;;;1.05;0.30;;;;;;;;;;5131701;27;20122;-61
2023/03/08 07:27:42;;;;;;;0.80;0.50;;;;;;;;;;5131205;27;20044;-61
2023/03/08 07:30:09;;;;;;;0.63;0.60;;;;;;;;;;5136509;27;20039;-61
2023/03/08 07:32:36;;;;;;;0.63;0.63;;;;;;;;;;5134409;27;20043;-59
2023/03/08 07:35:02;;;;;;;0.75;0.50;;;;;;;;;;5132083;27;20054;-59
2023/03/08 07:37:28;;;;;;;0.93;0.70;;;;;;;;;;5135939;27;20038;-61
2023/03/08 07:39:54;;;;;;;0.47;0.47;;;;;;;;;;5128801;27;20031;-61
2023/03/08 07:42:20;;;;;;;0.77;0.60;;;;;;;;;;5135189;27;20031;-59
2023/03/08 07:44:46;;;;;;;0.60;0.50;;;;;;;;;;5137781;27;20039;-61
2023/03/08 07:47:13;;;;;;;0.85;0.47;;;;;;;;;;5133608;27;20050;-59
2023/03/08 07:49:39;;;;;;;0.80;0.80;;;;;;;;;;5135411;27;20131;-62
2023/03/08 07:52:05;;;;;;;1.08;0.95;;;;;;;;;;5134951;27;20038;-59
2023/03/08 07:54:31;;;;;;;1.10;0.77;;;;;;;;;;5131253;27;20070;-59
2023/03/08 07:56:57;;;;;;;0.77;0.77;;;;;;;;;;5131855;27;20033;-61
2023/03/08 07:59:23;;;;;;;1.17;0.80;;;;;;;;;;5142376;27;20465;-61
2023/03/08 08:01:50;;;;;;;0.60;0.60;;;;;;;;;;5131078;27;21168;-60
2023/03/08 08:04:16;;;;;;;0.90;0.52;;;;;;;;;;5132451;27;20134;-59
2023/03/08 08:06:42;;;;;;;0.52;0.45;;;;;;;;;;5132987;27;20050;-59
2023/03/08 08:09:09;;;;;;;0.90;0.68;;;;;;;;;;5137237;27;20054;-60
2023/03/08 08:11:35;;;;;;;0.55;0.47;;;;;;;;;;5138966;27;20047;-59
2023/03/08 08:14:01;;;;;;;1.35;0.50;;;;;;;;;;5129789;27;20039;-59
2023/03/08 08:16:27;;;;;;;1.08;1.02;;;;;;;;;;5135095;27;20515;-61
2023/03/08 08:18:53;;;;;;;1.25;0.80;;;;;;;;;;5138658;27;20129;-61
2023/03/08 08:21:19;;;;;;;1.65;0.70;;;;;;;;;;5112590;27;20171;-59
2023/03/08 08:23:46;;;;;;;0.98;0.60;;;;;;;;;;5134804;27;20042;-59
2023/03/08 08:26:13;;;;;;;0.55;0.50;;;;;;;;;;5128867;27;20047;-59
2023/03/08 08:28:40;;;;;;;1.10;0.80;;;;;;;;;;5131155;27;20034;-61
2023/03/08 08:31:08;;;;;;;0.88;0.70;;;;;;;;;;5128640;27;20059;-59
2023/03/08 08:33:34;;;;;;;0.60;0.60;;;;;;;;;;5133053;27;20090;-59
2023/03/08 08:36:02;;;;;;;1.00;0.90;;;;;;;;;;5137351;27;20533;-59
2023/03/08 08:38:28;;;;;;;1.17;1.08;;;;;;;;;;5141014;27;20043;-61
2023/03/08 08:40:54;;;;;;;1.42;1.33;;;;;;;;;;5135540;27;20050;-60
2023/03/08 08:43:20;;;;;;;1.95;1.75;;;;;;;;;;5141896;27;20566;-62
2023/03/08 08:45:47;;;;;;;3.25;1.30;;;;;;;;;;5144356;27;20173;-59
2023/03/08 08:48:13;;;;;;;2.50;1.67;;;;;;;;;;5138658;27;20102;-59
2023/03/08 08:50:40;;;;;;;1.80;1.60;;;;;;;;;;5138230;27;20041;-61
2023/03/08 08:53:07;;;;;;;1.38;1.27;;;;;;;;;;5138789;27;20164;-61
2023/03/08 08:55:36;;;;;;;1.75;1.42;;;;;;;;;;5142200;27;20050;-59
2023/03/08 08:58:03;;;;;;;1.90;1.30;;;;;;;;;;5139465;27;20043;-59
2023/03/08 09:00:29;;;;;;;1.23;1.10;;;;;;;;;;5139822;27;20542;-61
2023/03/08 09:02:55;;;;;;;1.20;1.10;;;;;;;;;;5139832;27;20038;-61
2023/03/08 09:05:21;;;;;;;1.00;0.90;;;;;;;;;;5142460;27;20038;-61
2023/03/08 09:07:48;;;;;;;1.30;1.20;;;;;;;;;;5137472;27;20054;-53
2023/03/08 09:10:14;;;;;;;1.52;1.42;;;;;;;;;;5127274;27;20055;-58
2023/03/08 09:12:41;;;;;;;1.50;1.40;;;;;;;;;;5130204;27;20054;-51
2023/03/08 09:15:09;;;;;;;1.38;1.27;;;;;;;;;;5125160;28;20054;-58
2023/03/08 09:17:35;;;;;;;1.30;1.20;;;;;;;;;;5125621;28;20047;-57
2023/03/08 09:20:04;;;;;;;1.50;1.40;;;;;;;;;;5125493;27;20358;-59
2023/03/08 09:22:30;;;;;;;1.30;1.20;;;;;;;;;;5134570;27;20042;-59
2023/03/08 09:24:56;;;;;;;1.67;1.40;;;;;;;;;;5137662;27;20439;-60
2023/03/08 09:27:22;;;;;;;1.70;1.20;;;;;;;;;;5142052;27;20071;-61
2023/03/08 09:29:48;;;;;;;1.85;1.40;;;;;;;;;;5134226;27;20396;-60
2023/03/08 09:32:14;;;;;;;2.17;1.60;;;;;;;;;;5136786;27;20039;-61
2023/03/08 09:34:40;;;;;;;2.08;1.25;;;;;;;;;;5130008;27;20049;-62
2023/03/08 09:37:07;;;;;;;1.58;1.30;;;;;;;;;;5140683;27;20631;-62
2023/03/08 09:39:33;;;;;;;1.52;1.42;;;;;;;;;;5146417;27;20103;-62
2023/03/08 09:42:00;;;;;;;1.58;1.48;;;;;;;;;;5147688;27;20678;-62
2023/03/08 09:44:42;;;;;;;2.20;2.00;;;;;;;;;;5140878;27;20050;-61
2023/03/08 09:47:12;;;;;;;1.25;1.15;;;;;;;;;;5129192;27;20113;-56
2023/03/08 09:49:38;;;;;;;1.65;1.45;;;;;;;;;;5130730;27;20114;-57
2023/03/08 09:52:16;;;;;;;2.95;1.42;;;;;;;;;;5138518;27;20067;-59
2023/03/08 09:54:43;;;;;;;1.60;1.30;;;;;;;;;;5140773;27;20079;-57
2023/03/08 09:57:44;;;;;;;1.45;1.17;;;;;;;;;;5135614;27;20621;-56
2023/03/08 10:00:18;;;;;;;1.30;1.20;;;;;;;;;;5038525;28;20112;-57
2023/03/08 10:02:47;;;;;;;1.30;1.08;;;;;;;;;;5124925;27;20142;-57
2023/03/08 10:05:19;;;;;;;2.05;1.25;;;;;;;;;;5138075;27;20095;-57
2023/03/08 10:07:45;;;;;;;1.13;1.10;;;;;;;;;;5141168;27;20521;-57
2023/03/08 10:10:28;;;;;;;3.35;1.35;;;;;;;;;;5146985;27;20385;-56
2023/03/08 10:12:54;;;;;;;;;;;;;;;;;;5146473;27;20043;-56
2023/03/08 10:15:22;;;;;;;2.53;1.40;;;;;;;;;;5139910;27;19971;-57
2023/03/08 10:17:51;;;;;;;1.30;1.20;;;;;;;;;;5130261;27;20268;-57
2023/03/08 10:20:23;;;;;;;2.47;1.70;;;;;;;;;;5128676;27;20039;-57
2023/03/08 10:22:54;;;;;;;1.75;1.63;;;;;;;;;;5135997;27;20046;-56
2023/03/08 10:25:23;;;;;;;1.35;1.13;;;;;;;;;;5128497;27;20031;-58
2023/03/08 10:27:51;;;;;;;1.10;1.00;;;;;;;;;;5133355;27;20514;-57
2023/03/08 10:30:19;;;;;;;2.45;1.00;;;;;;;;;;5118748;27;20046;-56
2023/03/08 10:32:46;;;;;;;1.00;1.00;;;;;;;;;;5143442;27;20409;-58
2023/03/08 10:35:12;;;;;;;2.03;1.83;;;;;;;;;;5141247;27;20607;-57
2023/03/08 10:37:38;;;;;;;1.08;0.90;;;;;;;;;;5130631;27;20042;-59
2023/03/08 10:40:09;;;;;;;1.60;1.35;;;;;;;;;;5145525;27;20043;-59
2023/03/08 10:42:35;;;;;;;1.42;0.90;;;;;;;;;;5140693;27;20051;-57
2023/03/08 10:45:13;;;;;;;1.77;1.00;;;;;;;;;;5143243;27;20036;-57
2023/03/08 10:47:39;;;;;;;1.40;1.30;;;;;;;;;;5141445;27;20363;-57
2023/03/08 10:50:12;;;;;;;2.72;1.58;;;;;;;;;;5129771;27;20046;-57
2023/03/08 10:52:38;;;;;;;1.40;1.30;;;;;;;;;;5140495;27;20497;-57
2023/03/08 10:55:19;;;;;;;1.30;1.20;;;;;;;;;;5139986;27;20089;-57
2023/03/08 10:57:51;;;;;;;1.63;1.23;;;;;;;;;;5144217;27;20058;-57
2023/03/08 11:00:20;;;;;;;2.30;1.50;;;;;;;;;;5141053;27;20405;-57
2023/03/08 11:02:47;;;;;;;1.25;1.15;;;;;;;;;;5137160;27;20065;-59
2023/03/08 11:05:18;;;;;;;1.20;1.08;;;;;;;;;;5133501;27;20045;-57
2023/03/08 11:07:49;;;;;;;0.88;0.77;;;;;;;;;;5148045;27;20062;-59
2023/03/08 11:10:17;;;;;;;2.10;0.97;;;;;;;;;;5132087;27;20039;-57
2023/03/08 11:12:43;;;;;;;2.33;1.60;;;;;;;;;;5126791;27;20043;-57
2023/03/08 11:15:17;;;;;;;1.38;1.00;;;;;;;;;;5126899;27;20043;-58
2023/03/08 11:17:54;;;;;;;1.15;0.85;;;;;;;;;;5134694;27;20043;-57
2023/03/08 11:20:22;;;;;;;4.10;0.93;;;;;;;;;;5146425;27;20099;-57
2023/03/08 11:22:48;;;;;;;0.98;0.75;;;;;;;;;;5146538;27;20046;-59
2023/03/08 11:25:18;;;;;;;0.95;0.85;;;;;;;;;;5145876;27;20069;-58
2023/03/08 11:28:02;;;;;;;2.15;0.85;;;;;;;;;;5145710;27;20107;-58
2023/03/08 11:30:37;;;;;;;0.65;0.65;;;;;;;;;;5145387;27;20488;-57
2023/03/08 11:33:18;;;;;;;1.08;0.60;;;;;;;;;;5144548;27;20125;-57
2023/03/08 11:36:07;;;;;;;0.40;0.40;;;;;;;;;;5127769;27;20123;-57
2023/03/08 11:38:35;;;;;;;1.50;0.68;;;;;;;;;;5096849;27;20043;-57
2023/03/08 11:41:01;;;;;;;0.85;0.63;;;;;;;;;;5146123;27;20080;-57
2023/03/08 11:43:36;;;;;;;2.75;0.73;;;;;;;;;;5148167;27;20082;-57
2023/03/08 11:46:02;;;;;;;0.60;0.60;;;;;;;;;;5146952;27;20523;-56
2023/03/08 11:48:47;;;;;;;1.52;0.90;;;;;;;;;;5148367;27;20046;-57
2023/03/08 11:51:16;;;;;;;1.67;1.45;;;;;;;;;;5147769;27;20047;-56
2023/03/08 11:53:42;;;;;;;1.65;1.10;;;;;;;;;;5146401;27;20492;-57
2023/03/08 11:56:08;;;;;;;1.45;1.35;;;;;;;;;;5146832;27;20049;-58
2023/03/08 11:58:39;;;;;;;1.60;1.50;;;;;;;;;;5147686;27;20404;-57
2023/03/08 12:01:23;;;;;;;1.77;1.57;;;;;;;;;;5146212;27;20125;-59
2023/03/08 12:03:52;;;;;;;1.63;1.52;;;;;;;;;;5147502;27;20038;-56
2023/03/08 12:06:24;;;;;;;1.40;1.30;;;;;;;;;;5147329;27;20681;-57
2023/03/08 12:09:09;;;;;;;1.85;1.42;;;;;;;;;;5146383;27;20054;-57
2023/03/08 12:11:37;;;;;;;1.52;1.27;;;;;;;;;;5146732;27;20053;-57
2023/03/08 12:14:12;;;;;;;1.40;1.30;;;;;;;;;;5146231;27;20034;-57
2023/03/08 12:17:01;;;;;;;3.38;1.58;;;;;;;;;;5146879;27;20451;-57
2023/03/08 12:19:44;;;;;;;1.50;1.27;;;;;;;;;;5133921;27;20066;-57
2023/03/08 12:22:15;;;;;;;2.65;0.95;;;;;;;;;;5146299;27;20505;-57
2023/03/08 12:24:41;;;;;;;1.85;0.68;;;;;;;;;;5146797;27;20050;-57
2023/03/08 12:27:26;;;;;;;1.80;1.40;;;;;;;;;;5146709;27;20092;-57
2023/03/08 12:29:59;;;;;;;2.25;0.70;;;;;;;;;;5146046;27;20510;-57
2023/03/08 12:32:26;;;;;;;1.27;0.70;;;;;;;;;;5147673;27;20050;-58
2023/03/08 12:35:03;;;;;;;0.60;0.50;;;;;;;;;;5146551;27;20105;-57
2023/03/08 12:37:29;;;;;;;0.73;0.50;;;;;;;;;;5146868;27;20046;-57
2023/03/08 12:39:57;;;;;;;1.05;0.70;;;;;;;;;;5128210;27;20043;-57
2023/03/08 12:42:31;;;;;;;2.55;0.57;;;;;;;;;;5145912;27;20478;-57
2023/03/08 12:45:06;;;;;;;0.70;0.40;;;;;;;;;;5146621;27;20039;-57
2023/03/08 12:47:32;;;;;;;1.17;0.60;;;;;;;;;;5147073;27;20103;-57
2023/03/08 12:50:07;;;;;;;0.77;0.35;;;;;;;;;;5146353;27;20467;-57
2023/03/08 12:52:34;;;;;;;2.40;0.75;;;;;;;;;;5146732;27;20086;-57
2023/03/08 12:55:00;;;;;;;1.13;0.57;;;;;;;;;;5146892;27;20104;-57
2023/03/08 12:57:30;;;;;;;0.85;0.80;;;;;;;;;;5146599;27;20493;-59
2023/03/08 13:00:23;;;;;;;1.00;0.70;;;;;;;;;;5146941;27;20053;-57
2023/03/08 13:02:58;;;;;;;3.13;0.82;;;;;;;;;;5146669;27;20103;-58
2023/03/08 13:05:27;;;;;;;1.80;0.88;;;;;;;;;;5146333;27;20042;-57
2023/03/08 13:08:00;;;;;;;0.40;0.40;;;;;;;;;;5146228;27;20058;-57
2023/03/08 13:10:30;;;;;;;2.90;1.20;;;;;;;;;;5146645;27;20042;-57
2023/03/08 13:13:06;;;;;;;1.02;0.50;;;;;;;;;;5150160;27;20465;-57
2023/03/08 13:15:32;;;;;;;0.30;0.30;;;;;;;;;;5150497;27;20135;-57
2023/03/08 13:17:58;;;;;;;0.68;0.50;;;;;;;;;;5149954;27;20117;-59
2023/03/08 13:20:39;;;;;;;0.68;0.50;;;;;;;;;;5150339;27;20073;-57
2023/03/08 13:23:14;;;;;;;1.35;0.77;;;;;;;;;;5150173;27;20131;-57
2023/03/08 13:26:00;;;;;;;1.90;0.50;;;;;;;;;;5149787;27;20541;-58
2023/03/08 13:28:31;;;;;;;1.20;0.88;;;;;;;;;;5151117;27;20046;-57
2023/03/08 13:31:00;;;;;;;3.22;0.88;;;;;;;;;;5150729;27;20042;-56
2023/03/08 13:33:30;;;;;;;0.65;0.47;;;;;;;;;;5149721;27;20067;-57
2023/03/08 13:36:20;;;;;;;1.15;0.50;;;;;;;;;;5150080;27;20183;-56
2023/03/08 13:38:54;;;;;;;0.82;0.40;;;;;;;;;;5136152;27;20594;-59
2023/03/08 13:41:30;;;;;;;1.63;1.00;;;;;;;;;;5150098;27;20045;-59
2023/03/08 13:44:03;;;;;;;0.90;0.52;;;;;;;;;;5150132;27;20082;-57
2023/03/08 13:46:29;;;;;;;0.60;0.60;;;;;;;;;;5149741;27;20121;-59
2023/03/08 13:48:55;;;;;;;2.00;0.75;;;;;;;;;;5150142;27;20046;-57
2023/03/08 13:51:23;;;;;;;1.42;0.95;;;;;;;;;;5150063;27;20047;-57
2023/03/08 13:53:49;;;;;;;1.45;0.50;;;;;;;;;;5149135;27;20133;-57
2023/03/08 13:56:26;;;;;;;0.90;0.70;;;;;;;;;;5149951;27;20124;-59
2023/03/08 13:58:53;;;;;;;1.77;0.68;;;;;;;;;;5149548;27;20086;-57
2023/03/08 14:01:23;;;;;;;1.90;0.82;;;;;;;;;;5149348;27;20192;-57
2023/03/08 14:03:50;;;;;;;1.45;0.50;;;;;;;;;;5149887;27;20559;-57
2023/03/08 14:06:27;;;;;;;1.10;0.50;;;;;;;;;;5149830;27;20042;-57
2023/03/08 14:08:57;;;;;;;0.60;0.60;;;;;;;;;;5147679;27;20058;-57
2023/03/08 14:11:28;;;;;;;1.33;0.68;;;;;;;;;;5148498;27;20039;-57
2023/03/08 14:13:55;;;;;;;1.30;0.52;;;;;;;;;;5147170;27;20031;-57
2023/03/08 14:16:43;;;;;;;1.15;0.70;;;;;;;;;;5148423;27;20046;-58
2023/03/08 14:19:20;;;;;;;1.27;0.40;;;;;;;;;;5148172;27;20049;-58
2023/03/08 14:21:47;;;;;;;1.30;0.55;;;;;;;;;;5147803;27;20042;-59
2023/03/08 14:24:19;;;;;;;1.20;0.60;;;;;;;;;;5147053;27;20111;-57
2023/03/08 14:26:53;;;;;;;3.13;1.20;;;;;;;;;;5147792;27;20550;-57
2023/03/08 14:29:20;;;;;;;0.47;0.40;;;;;;;;;;5147361;27;20068;-57
2023/03/08 14:31:52;;;;;;;1.15;0.60;;;;;;;;;;5147828;27;20038;-57
2023/03/08 14:34:20;;;;;;;1.25;0.80;;;;;;;;;;5148460;27;20413;-59
2023/03/08 14:36:52;;;;;;;1.58;0.32;;;;;;;;;;5147254;27;20082;-57
2023/03/08 14:39:18;;;;;;;2.23;0.80;;;;;;;;;;5148095;27;20054;-57
2023/03/08 14:41:44;;;;;;;1.70;0.50;;;;;;;;;;5147189;27;20048;-58
2023/03/08 14:44:18;;;;;;;0.50;0.43;;;;;;;;;;5147932;27;20043;-58
2023/03/08 14:46:44;;;;;;;1.38;0.60;;;;;;;;;;5147807;27;20049;-57
2023/03/08 14:49:19;;;;;;;1.35;0.70;;;;;;;;;;5147131;27;20149;-57